createdAt,value
2023-03-12T00:02:11.757Z,1.15
2023-03-12T00:04:38.833Z,0.85
2023-03-12T00:07:06.708Z,0.88
2023-03-12T00:09:38.810Z,1.17
2023-03-12T00:12:06.530Z,1.20
2023-03-12T00:14:33.673Z,0.82
2023-03-12T00:17:00.642Z,0.90
2023-03-12T00:19:27.857Z,1.02
2023-03-12T00:21:54.872Z,1.00
2023-03-12T00:24:21.848Z,0.93
2023-03-12T00:26:48.787Z,1.33
2023-03-12T00:29:15.801Z,1.13
2023-03-12T00:31:42.831Z,1.20
2023-03-12T00:34:10.560Z,1.15
2023-03-12T00:36:37.593Z,1.00
2023-03-12T00:39:04.587Z,1.00
2023-03-12T00:41:31.574Z,1.30
2023-03-12T00:43:58.603Z,1.10
2023-03-12T00:46:25.988Z,1.10
2023-03-12T00:48:53.035Z,1.50
2023-03-12T00:51:20.160Z,1.05
2023-03-12T00:53:47.149Z,1.40
2023-03-12T00:56:14.495Z,1.02
2023-03-12T00:58:43.337Z,1.40
2023-03-12T01:01:10.711Z,1.13
2023-03-12T01:03:37.842Z,1.40
2023-03-12T01:06:05.500Z,1.20
2023-03-12T01:08:32.513Z,1.20
2023-03-12T01:10:59.918Z,1.33
2023-03-12T01:13:27.027Z,1.15
2023-03-12T01:15:53.972Z,1.30
2023-03-12T01:18:21.140Z,1.15
2023-03-12T01:20:48.189Z,1.20
2023-03-12T01:23:16.182Z,1.40
2023-03-12T01:25:43.522Z,1.38
2023-03-12T01:28:10.490Z,1.60
2023-03-12T01:30:37.474Z,1.42
2023-03-12T01:33:04.505Z,1.55
2023-03-12T01:35:35.521Z,1.40
2023-03-12T01:38:02.563Z,1.60
2023-03-12T01:40:29.472Z,1.52
2023-03-12T01:42:58.156Z,1.58
2023-03-12T01:46:18.827Z,1.40
2023-03-12T01:49:05.936Z,1.90
2023-03-12T01:51:40.386Z,1.90
2023-03-12T01:54:33.679Z,2.53
2023-03-12T01:57:02.838Z,2.30
2023-03-12T01:59:51.960Z,2.13
2023-03-12T02:02:25.024Z,2.75
2023-03-12T02:04:54.435Z,2.85
2023-03-12T02:07:21.342Z,2.75
2023-03-12T02:09:49.637Z,2.63
2023-03-12T02:12:17.950Z,2.80
2023-03-12T02:14:45.336Z,2.88
2023-03-12T02:17:12.863Z,3.13
2023-03-12T02:20:14.274Z,3.15
2023-03-12T02:22:45.559Z,3.00
2023-03-12T02:25:37.242Z,4.07
2023-03-12T02:28:07.297Z,3.97
2023-03-12T02:30:35.713Z,3.95
2023-03-12T02:33:06.669Z,4.20
2023-03-12T02:35:33.906Z,5.30
2023-03-12T02:38:01.015Z,5.15
2023-03-12T02:40:45.965Z,4.95
2023-03-12T02:43:13.091Z,6.32
2023-03-12T02:45:40.079Z,6.00
2023-03-12T02:48:09.761Z,6.45
2023-03-12T02:50:36.763Z,6.70
2023-03-12T02:53:03.686Z,5.97
2023-03-12T02:55:30.778Z,5.88
2023-03-12T02:57:57.668Z,6.22
2023-03-12T03:00:25.312Z,6.00
2023-03-12T03:02:52.288Z,5.63
2023-03-12T03:05:20.509Z,5.82
2023-03-12T03:07:47.522Z,6.45
2023-03-12T03:10:15.797Z,5.97
2023-03-12T03:12:43.252Z,5.95
2023-03-12T03:15:11.585Z,5.43
2023-03-12T03:17:38.653Z,5.95
2023-03-12T03:20:11.085Z,5.53
2023-03-12T03:22:38.880Z,5.43
2023-03-12T03:25:07.416Z,5.53
2023-03-12T03:27:34.402Z,5.45
2023-03-12T03:30:02.346Z,4.70
2023-03-12T03:32:29.293Z,5.80
2023-03-12T03:34:56.300Z,5.10
2023-03-12T03:37:23.197Z,4.93
2023-03-12T03:39:50.105Z,5.10
2023-03-12T03:42:17.180Z,5.22
2023-03-12T03:44:44.093Z,4.30
2023-03-12T03:47:11.033Z,4.70
2023-03-12T03:49:37.914Z,4.32
2023-03-12T03:52:05.030Z,4.68
2023-03-12T03:54:31.955Z,4.20
2023-03-12T03:56:58.898Z,4.03
2023-03-12T03:59:26.322Z,4.03
2023-03-12T04:01:53.246Z,4.00
2023-03-12T04:04:20.299Z,3.40
2023-03-12T04:06:47.261Z,3.58
2023-03-12T04:09:14.183Z,3.30
2023-03-12T04:11:41.166Z,4.00
2023-03-12T04:14:08.077Z,4.05
2023-03-12T04:16:35.051Z,4.72
2023-03-12T04:19:01.958Z,3.85
2023-03-12T04:21:28.951Z,3.40
2023-03-12T04:23:55.909Z,3.15
2023-03-12T04:26:22.990Z,4.03
2023-03-12T04:28:49.885Z,3.72
2023-03-12T04:31:16.850Z,3.80
2023-03-12T04:33:43.839Z,3.58
2023-03-12T04:36:12.418Z,3.60
2023-03-12T04:38:39.439Z,4.00
2023-03-12T04:41:09.363Z,3.95
2023-03-12T04:43:36.294Z,3.72
2023-03-12T04:46:03.817Z,3.25
2023-03-12T04:48:31.019Z,3.67
2023-03-12T04:50:57.925Z,3.67
2023-03-12T04:53:25.364Z,4.10
2023-03-12T04:55:52.433Z,3.67
2023-03-12T04:58:20.484Z,4.00
2023-03-12T05:00:49.498Z,4.30
2023-03-12T05:03:17.267Z,3.92
2023-03-12T05:05:44.456Z,4.60
2023-03-12T05:08:11.372Z,4.03
2023-03-12T05:10:38.614Z,4.15
2023-03-12T05:13:12.683Z,4.60
2023-03-12T05:15:39.572Z,3.97
2023-03-12T05:18:06.511Z,4.53
2023-03-12T05:20:33.453Z,4.60
2023-03-12T05:23:00.341Z,4.22
2023-03-12T05:25:27.661Z,4.57
2023-03-12T05:27:56.428Z,4.40
2023-03-12T05:30:23.454Z,4.85
2023-03-12T05:32:50.413Z,4.50
2023-03-12T05:35:17.444Z,5.03
2023-03-12T05:37:44.547Z,5.30
2023-03-12T05:40:12.662Z,4.70
2023-03-12T05:42:39.842Z,5.43
2023-03-12T05:45:07.626Z,4.88
2023-03-12T05:47:34.537Z,5.93
2023-03-12T05:50:01.522Z,5.57
2023-03-12T05:52:28.544Z,4.88
2023-03-12T05:54:55.536Z,4.40
2023-03-12T05:57:22.447Z,4.95
2023-03-12T05:59:49.335Z,4.97
2023-03-12T06:02:16.316Z,5.30
2023-03-12T06:04:43.264Z,5.38
2023-03-12T06:07:10.195Z,4.72
2023-03-12T06:09:37.195Z,5.03
2023-03-12T06:12:04.348Z,5.10
2023-03-12T06:14:31.261Z,4.80
2023-03-12T06:16:58.213Z,4.93
2023-03-12T06:19:25.263Z,4.35
2023-03-12T06:21:52.248Z,4.53
2023-03-12T06:24:19.152Z,4.13
2023-03-12T06:26:46.067Z,4.20
2023-03-12T06:29:13.052Z,3.90
2023-03-12T06:31:42.126Z,3.92
2023-03-12T06:34:10.418Z,4.40
2023-03-12T06:36:37.830Z,4.60
2023-03-12T06:39:09.220Z,4.10
2023-03-12T06:41:36.701Z,4.03
2023-03-12T06:44:06.201Z,5.03
2023-03-12T06:46:33.509Z,3.80
2023-03-12T06:49:00.483Z,4.30
2023-03-12T06:51:27.396Z,4.53
2023-03-12T06:53:54.389Z,3.85
2023-03-12T06:56:21.430Z,3.95
2023-03-12T06:58:48.942Z,3.05
2023-03-12T07:01:16.876Z,3.42
2023-03-12T07:03:43.852Z,3.22
2023-03-12T07:06:20.281Z,2.85
2023-03-12T07:08:47.609Z,3.20
2023-03-12T07:11:15.651Z,3.13
2023-03-12T07:13:42.760Z,3.13
2023-03-12T07:16:10.532Z,2.65
2023-03-12T07:18:37.810Z,3.00
2023-03-12T07:21:05.232Z,3.03
2023-03-12T07:23:32.217Z,3.08
2023-03-12T07:25:59.180Z,3.28
2023-03-12T07:28:26.118Z,2.72
2023-03-12T07:30:53.087Z,3.30
2023-03-12T07:33:21.786Z,3.05
2023-03-12T07:35:51.693Z,3.20
2023-03-12T07:38:18.967Z,3.22
2023-03-12T07:40:50.323Z,3.00
2023-03-12T07:43:19.676Z,3.10
2023-03-12T07:45:47.593Z,2.97
2023-03-12T07:48:14.813Z,2.97
2023-03-12T07:50:41.890Z,3.20
2023-03-12T07:53:08.837Z,4.25
2023-03-12T07:55:35.899Z,3.13
2023-03-12T07:58:03.656Z,3.53
2023-03-12T08:00:31.457Z,3.05
2023-03-12T08:02:58.631Z,3.10
2023-03-12T08:05:27.164Z,3.40
2023-03-12T08:07:54.633Z,3.20
2023-03-12T08:10:22.100Z,4.57
2023-03-12T08:12:49.332Z,3.95
2023-03-12T08:15:16.783Z,3.75
2023-03-12T08:17:44.123Z,4.90
2023-03-12T08:20:12.290Z,4.50
2023-03-12T08:22:40.308Z,4.63
2023-03-12T08:25:08.823Z,5.35
2023-03-12T08:27:36.206Z,5.47
2023-03-12T08:30:04.104Z,5.40
2023-03-12T08:32:31.918Z,5.93
2023-03-12T08:34:59.016Z,4.40
2023-03-12T08:37:25.981Z,4.53
2023-03-12T08:39:52.902Z,4.82
2023-03-12T08:42:19.867Z,4.53
2023-03-12T08:44:46.811Z,3.67
2023-03-12T08:47:13.745Z,3.17
2023-03-12T08:49:40.864Z,4.00
2023-03-12T08:52:07.891Z,4.05
2023-03-12T08:54:34.841Z,3.97
2023-03-12T08:57:01.969Z,3.45
2023-03-12T08:59:28.910Z,6.70
2023-03-12T09:01:56.244Z,6.68
2023-03-12T09:04:23.209Z,6.45
2023-03-12T09:06:50.202Z,4.82
2023-03-12T09:09:17.283Z,4.80
2023-03-12T09:11:44.260Z,3.95
2023-03-12T09:16:58.406Z,3.88
2023-03-12T09:19:25.538Z,4.10
2023-03-12T09:21:52.445Z,3.65
2023-03-12T09:24:19.357Z,3.70
2023-03-12T09:26:46.283Z,3.60
2023-03-12T09:29:13.232Z,3.70
2023-03-12T09:31:40.267Z,4.45
2023-03-12T09:34:07.372Z,4.10
2023-03-12T09:36:34.412Z,3.95
2023-03-12T09:39:02.461Z,3.45
2023-03-12T09:41:36.579Z,3.75
2023-03-12T09:44:31.137Z,4.00
2023-03-12T09:47:05.205Z,3.95
2023-03-12T09:49:40.998Z,4.18
2023-03-12T09:52:26.262Z,5.20
2023-03-12T09:55:15.163Z,4.35
2023-03-12T09:57:43.226Z,3.75
2023-03-12T10:00:22.072Z,3.90
2023-03-12T10:02:55.157Z,4.20
2023-03-12T10:05:40.746Z,4.28
2023-03-12T10:08:30.090Z,3.67
2023-03-12T10:11:32.661Z,4.25
2023-03-12T10:14:08.835Z,4.25
2023-03-12T10:16:53.987Z,3.90
2023-03-12T10:19:42.947Z,4.05
2023-03-12T10:22:18.659Z,3.45
2023-03-12T10:25:27.598Z,4.20
2023-03-12T10:27:59.292Z,3.88
2023-03-12T10:30:30.854Z,3.83
2023-03-12T10:33:04.477Z,4.20
2023-03-12T10:35:31.907Z,3.10
2023-03-12T10:38:05.719Z,3.92
2023-03-12T10:40:35.723Z,4.47
2023-03-12T10:43:04.181Z,3.50
2023-03-12T10:45:46.242Z,3.88
2023-03-12T10:48:24.210Z,3.20
2023-03-12T10:51:06.557Z,1.83
2023-03-12T10:53:52.641Z,3.38
2023-03-12T10:56:21.320Z,2.72
2023-03-12T10:58:53.118Z,1.83
2023-03-12T11:01:30.024Z,1.35
2023-03-12T11:04:28.733Z,0.98
2023-03-12T11:07:23.136Z,0.80
2023-03-12T11:10:14.610Z,0.80
2023-03-12T11:12:53.668Z,0.73
2023-03-12T11:15:28.211Z,0.60
2023-03-12T11:18:51.552Z,0.60
2023-03-12T11:21:20.280Z,0.52
2023-03-12T11:24:04.998Z,0.60
2023-03-12T11:26:35.177Z,0.50
2023-03-12T11:29:14.551Z,0.60
2023-03-12T11:31:57.078Z,0.40
2023-03-12T11:34:30.592Z,0.70
2023-03-12T11:37:16.052Z,0.40
2023-03-12T11:40:21.052Z,0.30
2023-03-12T11:42:56.855Z,0.40
2023-03-12T11:45:29.238Z,0.30
2023-03-12T11:48:15.828Z,0.35
2023-03-12T11:51:25.708Z,0.20
2023-03-12T11:54:25.234Z,0.25
2023-03-12T11:56:54.499Z,0.17
2023-03-12T11:59:45.758Z,0.20
2023-03-12T12:02:42.214Z,0.20
2023-03-12T12:05:37.167Z,2.15
2023-03-12T12:08:11.838Z,2.60
2023-03-12T12:10:57.538Z,2.15
2023-03-12T12:13:49.068Z,2.75
2023-03-12T12:16:50.247Z,2.03
2023-03-12T12:19:28.230Z,2.38
2023-03-12T12:22:32.197Z,2.70
2023-03-12T12:25:21.679Z,2.15
2023-03-12T12:27:54.761Z,2.40
2023-03-12T12:30:55.701Z,2.30
2023-03-12T12:33:56.223Z,1.90
2023-03-12T12:36:27.758Z,1.77
2023-03-12T12:39:01.395Z,1.85
2023-03-12T12:41:34.763Z,1.42
2023-03-12T12:44:10.302Z,1.60
2023-03-12T12:46:41.826Z,1.45
2023-03-12T12:49:26.851Z,1.77
2023-03-12T12:52:01.053Z,1.73
2023-03-12T12:54:30.983Z,1.85
2023-03-12T12:57:07.273Z,1.52
2023-03-12T12:59:56.500Z,1.65
2023-03-12T13:02:28.192Z,1.40
2023-03-12T13:04:59.051Z,1.38
2023-03-12T13:07:27.957Z,1.60
2023-03-12T13:09:57.141Z,2.50
2023-03-12T13:12:33.118Z,1.70
2023-03-12T13:15:01.720Z,1.90
2023-03-12T13:17:36.725Z,1.75
2023-03-12T13:20:15.841Z,1.50
2023-03-12T13:23:11.797Z,1.60
2023-03-12T13:26:06.645Z,2.25
2023-03-12T13:29:11.426Z,2.65
2023-03-12T13:31:40.842Z,2.50
2023-03-12T13:34:20.054Z,3.47
2023-03-12T13:37:17.776Z,3.40
2023-03-12T13:39:45.461Z,4.00
2023-03-12T13:42:39.602Z,3.40
2023-03-12T13:45:31.868Z,3.25
2023-03-12T13:48:01.795Z,2.67
2023-03-12T13:50:30.789Z,3.08
2023-03-12T13:53:08.090Z,3.40
2023-03-12T13:55:37.666Z,3.28
2023-03-12T13:58:21.431Z,3.17
2023-03-12T14:01:05.977Z,2.90
2023-03-12T14:03:40.548Z,3.00
2023-03-12T14:06:13.773Z,3.50
2023-03-12T14:08:55.769Z,3.03
2023-03-12T14:11:41.654Z,2.88
2023-03-12T14:14:48.392Z,2.17
2023-03-12T14:17:15.315Z,2.38
2023-03-12T14:19:48.098Z,2.70
2023-03-12T14:22:16.778Z,2.65
2023-03-12T14:25:01.945Z,2.45
2023-03-12T14:27:33.120Z,2.40
2023-03-12T14:30:20.659Z,3.20
2023-03-12T14:32:49.893Z,3.10
2023-03-12T14:35:36.805Z,2.70
2023-03-12T14:38:15.202Z,2.50
2023-03-12T14:41:14.750Z,2.75
2023-03-12T14:43:43.291Z,2.38
2023-03-12T14:46:22.249Z,2.55
2023-03-12T14:48:52.134Z,2.60
2023-03-12T14:51:28.128Z,2.90
2023-03-12T14:53:55.750Z,2.70
2023-03-12T14:56:30.666Z,2.50
2023-03-12T14:59:00.227Z,2.95
2023-03-12T15:01:32.228Z,2.58
2023-03-12T15:04:02.312Z,2.25
2023-03-12T15:06:40.435Z,2.55
2023-03-12T15:09:09.103Z,2.65
2023-03-12T15:11:37.962Z,2.88
2023-03-12T15:14:14.462Z,2.50
2023-03-12T15:16:43.645Z,2.70
2023-03-12T15:19:16.882Z,2.70
2023-03-12T15:21:44.888Z,2.47
2023-03-12T15:24:14.132Z,2.83
2023-03-12T15:26:43.275Z,2.47
2023-03-12T15:29:26.936Z,2.63
2023-03-12T15:31:56.687Z,2.95
2023-03-12T15:34:36.327Z,2.75
2023-03-12T15:37:24.646Z,2.30
2023-03-12T15:39:53.318Z,2.63
2023-03-12T15:42:24.418Z,2.90
2023-03-12T15:44:56.995Z,2.25
2023-03-12T15:47:32.803Z,2.55
2023-03-12T15:50:03.643Z,2.30
2023-03-12T15:52:33.816Z,2.33
2023-03-12T15:55:10.398Z,2.30
2023-03-12T15:57:47.460Z,2.60
2023-03-12T16:00:46.359Z,2.72
2023-03-12T16:03:18.863Z,2.78
2023-03-12T16:05:46.074Z,2.70
2023-03-12T16:08:23.972Z,1.90
2023-03-12T16:10:51.295Z,3.03
2023-03-12T16:13:21.308Z,2.47
2023-03-12T16:15:48.797Z,2.08
2023-03-12T16:18:18.182Z,2.80
2023-03-12T16:20:46.320Z,2.92
2023-03-12T16:23:13.358Z,3.20
2023-03-12T16:25:47.222Z,2.75
2023-03-12T16:28:17.251Z,2.83
2023-03-12T16:30:44.504Z,2.58
2023-03-12T16:33:16.779Z,2.60
2023-03-12T16:35:44.444Z,2.55
2023-03-12T16:38:11.449Z,3.28
2023-03-12T16:40:42.523Z,2.90
2023-03-12T16:43:17.637Z,3.75
2023-03-12T16:45:47.010Z,3.20
2023-03-12T16:48:20.294Z,3.30
2023-03-12T16:50:52.641Z,2.97
2023-03-12T16:53:20.218Z,3.45
2023-03-12T16:56:01.532Z,5.45
2023-03-12T16:58:30.043Z,5.35
2023-03-12T17:00:57.211Z,3.83
2023-03-12T17:03:36.701Z,2.97
2023-03-12T17:06:06.823Z,5.03
2023-03-12T17:08:36.143Z,4.40
2023-03-12T17:11:06.677Z,3.38
2023-03-12T17:13:36.848Z,3.92
2023-03-12T17:16:03.926Z,3.45
2023-03-12T17:18:30.881Z,4.22
2023-03-12T17:20:58.158Z,3.88
2023-03-12T17:23:25.220Z,3.40
2023-03-12T17:25:52.142Z,3.83
2023-03-12T17:28:19.083Z,5.05
2023-03-12T17:30:47.423Z,4.45
2023-03-12T17:33:17.180Z,3.72
2023-03-12T17:35:44.708Z,6.47
2023-03-12T17:38:13.033Z,6.70
2023-03-12T17:40:41.951Z,6.97
2023-03-12T17:43:09.061Z,5.78
2023-03-12T17:45:37.061Z,3.72
2023-03-12T17:48:04.450Z,3.00
2023-03-12T17:50:31.740Z,5.35
2023-03-12T17:52:58.668Z,5.88
2023-03-12T17:55:25.609Z,5.05
2023-03-12T17:57:52.502Z,4.80
2023-03-12T18:00:21.959Z,3.72
2023-03-12T18:02:49.530Z,5.80
2023-03-12T18:05:16.846Z,4.28
2023-03-12T18:07:43.845Z,5.18
2023-03-12T18:10:11.439Z,5.50
2023-03-12T18:12:40.183Z,5.53
2023-03-12T18:15:09.133Z,4.78
2023-03-12T18:17:36.085Z,6.22
2023-03-12T18:20:09.476Z,5.50
2023-03-12T18:22:38.623Z,6.15
2023-03-12T18:25:07.407Z,5.97
2023-03-12T18:27:34.839Z,9.98
2023-03-12T18:30:01.938Z,4.10
2023-03-12T18:32:28.946Z,8.10
2023-03-12T18:34:56.913Z,6.57
2023-03-12T18:37:23.851Z,6.88
2023-03-12T18:39:50.776Z,3.38
2023-03-12T18:42:17.968Z,5.32
2023-03-12T18:44:44.915Z,5.70
2023-03-12T18:47:11.811Z,8.55
2023-03-12T18:49:38.750Z,8.73
2023-03-12T18:52:05.798Z,5.50
2023-03-12T18:54:33.739Z,7.90
2023-03-12T18:57:01.359Z,8.73
2023-03-12T18:59:31.825Z,9.00
2023-03-12T19:01:59.302Z,5.43
2023-03-12T19:04:26.436Z,7.10
2023-03-12T19:06:53.414Z,7.65
2023-03-12T19:09:20.531Z,5.97
2023-03-12T19:11:48.668Z,7.72
2023-03-12T19:14:15.666Z,8.60
2023-03-12T19:16:42.725Z,7.72
2023-03-12T19:19:09.779Z,9.70
2023-03-12T19:21:36.694Z,7.97
2023-03-12T19:24:04.206Z,7.60
2023-03-12T19:26:31.113Z,9.63
2023-03-12T19:28:57.990Z,8.63
2023-03-12T19:31:25.575Z,7.28
2023-03-12T19:33:53.140Z,5.72
2023-03-12T19:36:20.093Z,9.30
2023-03-12T19:38:47.014Z,9.25
2023-03-12T19:41:13.995Z,10.18
2023-03-12T19:43:41.313Z,10.35
2023-03-12T19:46:08.439Z,8.32
2023-03-12T19:48:35.432Z,10.05
2023-03-12T19:51:07.760Z,10.32
2023-03-12T19:53:34.905Z,9.80
2023-03-12T19:56:01.886Z,7.53
2023-03-12T19:58:28.858Z,9.70
2023-03-12T20:00:59.849Z,8.25
2023-03-12T20:03:28.028Z,8.43
2023-03-12T20:05:55.258Z,7.30
2023-03-12T20:08:22.864Z,6.60
2023-03-12T20:10:49.894Z,8.10
2023-03-12T20:13:17.825Z,6.88
2023-03-12T20:15:48.703Z,9.52
2023-03-12T20:18:16.162Z,8.77
2023-03-12T20:20:43.447Z,10.25
2023-03-12T20:23:10.416Z,13.82
2023-03-12T20:25:41.276Z,8.80
2023-03-12T20:28:09.084Z,7.38
2023-03-12T20:30:37.514Z,6.07
2023-03-12T20:33:05.896Z,7.00
2023-03-12T20:35:33.058Z,5.70
2023-03-12T20:38:00.254Z,5.28
2023-03-12T20:40:27.495Z,6.30
2023-03-12T20:42:54.484Z,8.52
2023-03-12T20:45:21.518Z,7.72
2023-03-12T20:47:48.410Z,8.25
2023-03-12T20:50:16.059Z,6.82
2023-03-12T20:52:44.631Z,7.22
2023-03-12T20:55:11.690Z,7.00
2023-03-12T20:57:38.581Z,4.20
2023-03-12T21:00:06.073Z,6.80
2023-03-12T21:02:33.090Z,6.88
2023-03-12T21:05:00.024Z,9.30
2023-03-12T21:07:26.906Z,8.55
2023-03-12T21:09:53.875Z,8.18
2023-03-12T21:12:20.778Z,7.50
2023-03-12T21:14:48.305Z,8.23
2023-03-12T21:17:15.429Z,8.25
2023-03-12T21:19:42.835Z,8.27
2023-03-12T21:22:10.218Z,7.85
2023-03-12T21:24:37.251Z,7.88
2023-03-12T21:27:04.234Z,7.97
2023-03-12T21:29:31.143Z,6.22
2023-03-12T21:31:58.081Z,7.38
2023-03-12T21:34:25.004Z,8.13
2023-03-12T21:36:51.915Z,8.88
2023-03-12T21:39:18.921Z,8.20
2023-03-12T21:41:46.049Z,8.10
2023-03-12T21:44:14.795Z,8.93
2023-03-12T21:46:43.439Z,8.15
2023-03-12T21:49:10.445Z,8.40
2023-03-12T21:51:39.463Z,8.95
2023-03-12T21:54:06.633Z,11.75
2023-03-12T21:56:33.551Z,9.90
2023-03-12T21:59:00.453Z,13.43
2023-03-12T22:01:27.882Z,21.83
2023-03-12T22:03:54.896Z,12.48
2023-03-12T22:06:22.093Z,12.52
2023-03-12T22:08:49.896Z,13.20
2023-03-12T22:11:17.254Z,10.75
2023-03-12T22:13:44.422Z,9.25
2023-03-12T22:16:13.880Z,9.65
2023-03-12T22:18:43.256Z,8.82
2023-03-12T22:21:21.738Z,13.55
2023-03-12T22:23:53.544Z,8.55
2023-03-12T22:26:22.525Z,7.60
2023-03-12T22:28:51.060Z,8.63
2023-03-12T22:31:19.279Z,7.30
2023-03-12T22:33:46.537Z,7.88
2023-03-12T22:36:15.512Z,6.18
2023-03-12T22:38:43.085Z,6.20
2023-03-12T22:41:17.507Z,6.35
2023-03-12T22:43:45.686Z,6.68
2023-03-12T22:46:13.125Z,7.68
2023-03-12T22:48:40.278Z,7.78
2023-03-12T22:51:07.323Z,6.95
2023-03-12T22:53:36.037Z,5.97
2023-03-12T22:56:06.078Z,5.88
2023-03-12T22:58:33.811Z,5.43
2023-03-12T23:01:01.743Z,6.07
2023-03-12T23:03:32.804Z,6.10
2023-03-12T23:06:01.027Z,8.77
2023-03-12T23:08:29.473Z,8.75
2023-03-12T23:10:59.080Z,8.38
2023-03-12T23:13:27.379Z,7.45
2023-03-12T23:15:54.517Z,9.00
2023-03-12T23:18:21.801Z,7.95
2023-03-12T23:20:57.366Z,8.60
2023-03-12T23:23:24.326Z,8.93
2023-03-12T23:25:55.937Z,8.25
2023-03-12T23:28:23.549Z,7.53
2023-03-12T23:31:04.993Z,7.38
2023-03-12T23:33:33.405Z,7.35
2023-03-12T23:36:05.615Z,7.70
2023-03-12T23:38:33.961Z,4.15
2023-03-12T23:41:11.880Z,7.95
2023-03-12T23:43:39.283Z,8.52
2023-03-12T23:46:07.925Z,8.80
2023-03-12T23:48:36.454Z,8.75
2023-03-12T23:51:14.728Z,6.18
2023-03-12T23:53:43.842Z,8.05
2023-03-12T23:56:14.986Z,6.90
2023-03-12T23:58:42.947Z,8.32
